AFR26KD LFKJ-LFPO
Flight info
| Callsign | AFR26KD |
|---|---|
| Flight time | N/A |
| Altitude | 34000 |
| Route | LONSU M622 PIGOS DCT BARSO DCT OKTET DCT GIPNO DCT BULOL DCT IDAVO DCT ARDOL |
| Aircraft | A320/M-SDE3FGHIRWY/LB1 |
Departure
| Time | 2026-04-22 14:28 |
|---|---|
| Airport | Ajaccio Napoléon Bonaparte airport (LFKJ) |
Arrival
| Time | N/A |
|---|---|
| Airport | Paris-Orly Airport (LFPO) |
| Time | Latitude | Longitude | Altitude | Speed | Heading |
|---|---|---|---|---|---|
| 2026-04-22 14:02 | 41.91970 | 8.79570 | 21 ft | 0 kts | 345° |
| 2026-04-22 14:20 | 41.91957 | 8.79575 | 21 ft | 3 kts | 339° |
| 2026-04-22 14:21 | 41.91923 | 8.79603 | 23 ft | 3 kts | 326° |
| 2026-04-22 14:21 | 41.91912 | 8.79612 | 22 ft | 2 kts | 17° |
| 2026-04-22 14:22 | 41.91909 | 8.79611 | 22 ft | 0 kts | 25° |
| 2026-04-22 14:23 | 41.91939 | 8.79630 | 21 ft | 9 kts | 25° |
| 2026-04-22 14:24 | 41.92018 | 8.79679 | 22 ft | 16 kts | 25° |
| 2026-04-22 14:24 | 41.92123 | 8.79745 | 24 ft | 17 kts | 25° |
| 2026-04-22 14:24 | 41.92227 | 8.79810 | 21 ft | 16 kts | 24° |
| 2026-04-22 14:24 | 41.92285 | 8.79871 | 21 ft | 9 kts | 66° |
| 2026-04-22 14:25 | 41.92285 | 8.79951 | 21 ft | 8 kts | 96° |
| 2026-04-22 14:25 | 41.92282 | 8.79999 | 22 ft | 8 kts | 94° |
| 2026-04-22 14:25 | 41.92276 | 8.80110 | 23 ft | 15 kts | 92° |
| 2026-04-22 14:25 | 41.92362 | 8.80226 | 24 ft | 23 kts | 24° |
| 2026-04-22 14:26 | 41.92533 | 8.80331 | 22 ft | 31 kts | 24° |
| 2026-04-22 14:26 | 41.92737 | 8.80458 | 25 ft | 33 kts | 26° |
| 2026-04-22 14:26 | 41.92946 | 8.80589 | 26 ft | 34 kts | 25° |
| 2026-04-22 14:26 | 41.93086 | 8.80657 | 26 ft | 15 kts | 354° |
| 2026-04-22 14:27 | 41.93139 | 8.80675 | 27 ft | 6 kts | 73° |
| 2026-04-22 14:27 | 41.93121 | 8.80697 | 27 ft | 3 kts | 177° |
| 2026-04-22 14:27 | 41.93102 | 8.80687 | 30 ft | 5 kts | 204° |
| 2026-04-22 14:27 | 41.93054 | 8.80658 | 27 ft | 12 kts | 205° |
| 2026-04-22 14:28 | 41.92763 | 8.80475 | 26 ft | 85 kts | 205° |
| 2026-04-22 14:28 | 41.92026 | 8.80015 | 26 ft | 146 kts | 205° |
| 2026-04-22 14:28 | 41.91003 | 8.79401 | 381 ft | 164 kts | 205° |
| 2026-04-22 14:28 | 41.90033 | 8.78581 | 1072 ft | 166 kts | 225° |
| 2026-04-22 14:29 | 41.89326 | 8.77299 | 1628 ft | 181 kts | 240° |
| 2026-04-22 14:29 | 41.88695 | 8.75718 | 1988 ft | 204 kts | 242° |
| 2026-04-22 14:29 | 41.88013 | 8.73935 | 2366 ft | 228 kts | 243° |
| 2026-04-22 14:29 | 41.87236 | 8.71949 | 2871 ft | 251 kts | 242° |
| 2026-04-22 14:30 | 41.86382 | 8.69840 | 3670 ft | 261 kts | 240° |
| 2026-04-22 14:30 | 41.85492 | 8.67703 | 4636 ft | 265 kts | 240° |
| 2026-04-22 14:30 | 41.84578 | 8.65532 | 5619 ft | 268 kts | 243° |
| 2026-04-22 14:30 | 41.84016 | 8.63154 | 6584 ft | 269 kts | 266° |
| 2026-04-22 14:31 | 41.84213 | 8.60682 | 7544 ft | 268 kts | 289° |
| 2026-04-22 14:31 | 41.85137 | 8.58529 | 8534 ft | 269 kts | 311° |
| 2026-04-22 14:31 | 41.86640 | 8.57038 | 9531 ft | 273 kts | 332° |
| 2026-04-22 14:31 | 41.88389 | 8.56001 | 10410 ft | 279 kts | 333° |
| 2026-04-22 14:32 | 41.90244 | 8.54910 | 10718 ft | 303 kts | 333° |
| 2026-04-22 14:32 | 41.92248 | 8.53727 | 10973 ft | 326 kts | 333° |
| 2026-04-22 14:32 | 41.94365 | 8.52474 | 11502 ft | 337 kts | 333° |
| 2026-04-22 14:32 | 41.96526 | 8.51196 | 12238 ft | 341 kts | 333° |
| 2026-04-22 14:33 | 41.98709 | 8.49906 | 13022 ft | 344 kts | 332° |
| 2026-04-22 14:33 | 42.00912 | 8.48604 | 13809 ft | 348 kts | 332° |
| 2026-04-22 14:33 | 42.03137 | 8.47286 | 14501 ft | 351 kts | 332° |
| 2026-04-22 14:33 | 42.05378 | 8.45959 | 15180 ft | 353 kts | 332° |
| 2026-04-22 14:34 | 42.07635 | 8.44618 | 15858 ft | 356 kts | 332° |
| 2026-04-22 14:34 | 42.09910 | 8.43263 | 16554 ft | 359 kts | 332° |
| 2026-04-22 14:34 | 42.12196 | 8.41900 | 17248 ft | 361 kts | 332° |
| 2026-04-22 14:34 | 42.14497 | 8.40525 | 17945 ft | 363 kts | 332° |
| 2026-04-22 14:35 | 42.16816 | 8.39136 | 18589 ft | 366 kts | 332° |
| 2026-04-22 14:35 | 42.19149 | 8.37738 | 19168 ft | 369 kts | 332° |
| 2026-04-22 14:35 | 42.21506 | 8.36330 | 19733 ft | 372 kts | 332° |
| 2026-04-22 14:35 | 42.23881 | 8.34911 | 20291 ft | 375 kts | 332° |
| 2026-04-22 14:36 | 42.26279 | 8.33472 | 20807 ft | 379 kts | 332° |
| 2026-04-22 14:36 | 42.28706 | 8.32018 | 21309 ft | 383 kts | 332° |
| 2026-04-22 14:36 | 42.31155 | 8.30552 | 21810 ft | 387 kts | 332° |
| 2026-04-22 14:36 | 42.33592 | 8.29091 | 22342 ft | 389 kts | 332° |
| 2026-04-22 14:37 | 42.36111 | 8.27579 | 22846 ft | 392 kts | 332° |
| 2026-04-22 14:37 | 42.38582 | 8.26092 | 23317 ft | 395 kts | 332° |
| 2026-04-22 14:37 | 42.41104 | 8.24573 | 23759 ft | 398 kts | 332° |
| 2026-04-22 14:37 | 42.43646 | 8.23044 | 24141 ft | 401 kts | 332° |
| 2026-04-22 14:38 | 42.46201 | 8.21503 | 24521 ft | 403 kts | 332° |
| 2026-04-22 14:38 | 42.48771 | 8.19949 | 24914 ft | 406 kts | 332° |
| 2026-04-22 14:38 | 42.51353 | 8.18380 | 25284 ft | 408 kts | 332° |
| 2026-04-22 14:38 | 42.53950 | 8.16803 | 25652 ft | 410 kts | 332° |
| 2026-04-22 14:39 | 42.56563 | 8.15221 | 26027 ft | 413 kts | 333° |
| 2026-04-22 14:39 | 42.59196 | 8.13631 | 26392 ft | 415 kts | 333° |
| 2026-04-22 14:39 | 42.61838 | 8.12034 | 26737 ft | 417 kts | 333° |
| 2026-04-22 14:40 | 42.67163 | 8.08810 | 27400 ft | 421 kts | 333° |
| 2026-04-22 14:40 | 42.69847 | 8.07183 | 27720 ft | 423 kts | 333° |
| 2026-04-22 14:40 | 42.72540 | 8.05544 | 28021 ft | 425 kts | 333° |
| 2026-04-22 14:40 | 42.75243 | 8.03897 | 28353 ft | 427 kts | 332° |
| 2026-04-22 14:41 | 42.77953 | 8.02229 | 28656 ft | 428 kts | 331° |
| 2026-04-22 14:41 | 42.80617 | 8.00420 | 28922 ft | 428 kts | 329° |
| 2026-04-22 14:41 | 42.83232 | 7.98470 | 29183 ft | 429 kts | 327° |
| 2026-04-22 14:41 | 42.85823 | 7.96435 | 29381 ft | 431 kts | 327° |
| 2026-04-22 14:42 | 42.88413 | 7.94366 | 29642 ft | 432 kts | 327° |
| 2026-04-22 14:42 | 42.91013 | 7.92307 | 29955 ft | 432 kts | 327° |
| 2026-04-22 14:42 | 42.93624 | 7.90275 | 30281 ft | 432 kts | 327° |
| 2026-04-22 14:42 | 42.96239 | 7.88270 | 30606 ft | 431 kts | 328° |
| 2026-04-22 14:43 | 42.98852 | 7.86290 | 30949 ft | 428 kts | 328° |
| 2026-04-22 14:43 | 43.01421 | 7.84351 | 31283 ft | 427 kts | 328° |
| 2026-04-22 14:43 | 43.04014 | 7.82392 | 31611 ft | 425 kts | 328° |
| 2026-04-22 14:43 | 43.06594 | 7.80435 | 31934 ft | 423 kts | 327° |
| 2026-04-22 14:44 | 43.09163 | 7.78476 | 32254 ft | 422 kts | 327° |
| 2026-04-22 14:44 | 43.11748 | 7.76486 | 32587 ft | 420 kts | 327° |
| 2026-04-22 14:44 | 43.14253 | 7.74540 | 32911 ft | 419 kts | 327° |
| 2026-04-22 14:44 | 43.16780 | 7.72571 | 33241 ft | 417 kts | 327° |
| 2026-04-22 14:45 | 43.19294 | 7.70615 | 33648 ft | 414 kts | 327° |
| 2026-04-22 14:45 | 43.21789 | 7.68676 | 34019 ft | 412 kts | 327° |
| 2026-04-22 14:45 | 43.26758 | 7.64816 | 34123 ft | 409 kts | 327° |
| 2026-04-22 14:46 | 43.31708 | 7.60966 | 34122 ft | 409 kts | 327° |
| 2026-04-22 14:46 | 43.36661 | 7.57118 | 34116 ft | 410 kts | 328° |
| 2026-04-22 14:47 | 43.41619 | 7.53260 | 34123 ft | 409 kts | 327° |
| 2026-04-22 14:47 | 43.46569 | 7.49397 | 34121 ft | 409 kts | 327° |
| 2026-04-22 14:48 | 43.51516 | 7.45527 | 34131 ft | 409 kts | 327° |
| 2026-04-22 14:48 | 43.56464 | 7.41652 | 34131 ft | 409 kts | 327° |
| 2026-04-22 14:49 | 43.61408 | 7.37772 | 34140 ft | 408 kts | 327° |
| 2026-04-22 14:49 | 43.66235 | 7.33681 | 34138 ft | 406 kts | 324° |
| 2026-04-22 14:50 | 43.70911 | 7.29297 | 34139 ft | 406 kts | 323° |
| 2026-04-22 14:50 | 43.75581 | 7.24895 | 34139 ft | 406 kts | 323° |
| 2026-04-22 14:51 | 43.80284 | 7.20552 | 34154 ft | 406 kts | 324° |
| 2026-04-22 14:51 | 43.84991 | 7.16244 | 34146 ft | 405 kts | 324° |
| 2026-04-22 14:52 | 43.89688 | 7.11927 | 34144 ft | 405 kts | 323° |
| 2026-04-22 14:52 | 43.94380 | 7.07598 | 34152 ft | 405 kts | 323° |
| 2026-04-22 14:53 | 43.99068 | 7.03252 | 34158 ft | 406 kts | 323° |
| 2026-04-22 14:53 | 44.03754 | 6.98906 | 34152 ft | 404 kts | 323° |
| 2026-04-22 14:54 | 44.08414 | 6.94579 | 34152 ft | 402 kts | 323° |
| 2026-04-22 14:54 | 44.13065 | 6.90249 | 34153 ft | 402 kts | 323° |
| 2026-04-22 14:55 | 44.17711 | 6.85916 | 34160 ft | 402 kts | 323° |
| 2026-04-22 14:55 | 44.22368 | 6.81571 | 34241 ft | 404 kts | 324° |
| 2026-04-22 14:56 | 44.24699 | 6.79389 | 34504 ft | 403 kts | 324° |
| 2026-04-22 14:56 | 44.26996 | 6.77233 | 34771 ft | 403 kts | 324° |
| 2026-04-22 14:56 | 44.29289 | 6.75079 | 35016 ft | 404 kts | 324° |
| 2026-04-22 14:56 | 44.31599 | 6.72905 | 35121 ft | 404 kts | 324° |
| 2026-04-22 14:57 | 44.36259 | 6.68509 | 35121 ft | 404 kts | 324° |
| 2026-04-22 14:57 | 44.40913 | 6.64114 | 35122 ft | 404 kts | 324° |
| 2026-04-22 14:58 | 44.45564 | 6.59738 | 35124 ft | 402 kts | 324° |
| 2026-04-22 14:58 | 44.50192 | 6.55359 | 35122 ft | 401 kts | 324° |
| 2026-04-22 14:59 | 44.54810 | 6.50987 | 35106 ft | 401 kts | 324° |
| 2026-04-22 14:59 | 44.59421 | 6.46599 | 35096 ft | 400 kts | 324° |
| 2026-04-22 15:00 | 44.64036 | 6.42207 | 35093 ft | 401 kts | 324° |
| 2026-04-22 15:00 | 44.68658 | 6.37817 | 35093 ft | 401 kts | 324° |
| 2026-04-22 15:01 | 44.73279 | 6.33413 | 35093 ft | 401 kts | 324° |
| 2026-04-22 15:01 | 44.77899 | 6.28991 | 35093 ft | 401 kts | 324° |
| 2026-04-22 15:02 | 44.82516 | 6.24557 | 35104 ft | 402 kts | 324° |
| 2026-04-22 15:02 | 44.87136 | 6.20122 | 35105 ft | 401 kts | 324° |
| 2026-04-22 15:03 | 44.91745 | 6.15687 | 35096 ft | 401 kts | 324° |
| 2026-04-22 15:03 | 44.96352 | 6.11245 | 35089 ft | 401 kts | 324° |
| 2026-04-22 15:04 | 45.00924 | 6.06826 | 35101 ft | 401 kts | 324° |
| 2026-04-22 15:04 | 45.05522 | 6.02374 | 35119 ft | 400 kts | 324° |
| 2026-04-22 15:05 | 45.10103 | 5.97929 | 35099 ft | 398 kts | 324° |
| 2026-04-22 15:05 | 45.14674 | 5.93488 | 35102 ft | 399 kts | 324° |
| 2026-04-22 15:06 | 45.19254 | 5.89027 | 35106 ft | 400 kts | 324° |
| 2026-04-22 15:06 | 45.23830 | 5.84563 | 35123 ft | 399 kts | 323° |
| 2026-04-22 15:07 | 45.28388 | 5.80099 | 35120 ft | 398 kts | 323° |
| 2026-04-22 15:07 | 45.32938 | 5.75636 | 35089 ft | 397 kts | 324° |
| 2026-04-22 15:08 | 45.37492 | 5.71162 | 35088 ft | 398 kts | 324° |
| 2026-04-22 15:08 | 45.42048 | 5.66685 | 35087 ft | 398 kts | 324° |
| 2026-04-22 15:09 | 45.46600 | 5.62199 | 35122 ft | 397 kts | 323° |
| 2026-04-22 15:09 | 45.51144 | 5.57717 | 35121 ft | 397 kts | 323° |
| 2026-04-22 15:10 | 45.55681 | 5.53235 | 35120 ft | 396 kts | 323° |
| 2026-04-22 15:10 | 45.60300 | 5.48922 | 35118 ft | 397 kts | 326° |
| 2026-04-22 15:11 | 45.65010 | 5.44803 | 35098 ft | 397 kts | 327° |
| 2026-04-22 15:11 | 45.69718 | 5.40665 | 35100 ft | 397 kts | 326° |
| 2026-04-22 15:12 | 45.74402 | 5.36479 | 35105 ft | 397 kts | 326° |
| 2026-04-22 15:12 | 45.79074 | 5.32270 | 35103 ft | 397 kts | 326° |
| 2026-04-22 15:13 | 45.83711 | 5.28085 | 35100 ft | 396 kts | 326° |
| 2026-04-22 15:13 | 45.88378 | 5.23872 | 35117 ft | 396 kts | 326° |
| 2026-04-22 15:14 | 45.93043 | 5.19652 | 35110 ft | 396 kts | 326° |
| 2026-04-22 15:14 | 45.97710 | 5.15428 | 35106 ft | 396 kts | 326° |